sensor_id;sensor_type;location;lat;lon;timestamp;P1;durP1;ratioP1;P2;durP2;ratioP2
8652;SDS011;4364;52.426;9.424;2022-12-29T00:01:39;2.97;;;2.10;;
8652;SDS011;4364;52.426;9.424;2022-12-29T00:04:06;3.10;;;2.47;;
8652;SDS011;4364;52.426;9.424;2022-12-29T00:06:39;3.07;;;2.50;;
8652;SDS011;4364;52.426;9.424;2022-12-29T00:09:06;2.73;;;2.03;;
8652;SDS011;4364;52.426;9.424;2022-12-29T00:11:33;3.37;;;2.30;;
8652;SDS011;4364;52.426;9.424;2022-12-29T00:13:59;3.27;;;2.30;;
8652;SDS011;4364;52.426;9.424;2022-12-29T00:16:51;4.50;;;2.50;;
8652;SDS011;4364;52.426;9.424;2022-12-29T00:19:17;2.83;;;2.10;;
8652;SDS011;4364;52.426;9.424;2022-12-29T00:22:03;3.83;;;2.20;;
8652;SDS011;4364;52.426;9.424;2022-12-29T00:24:48;5.07;;;2.30;;
8652;SDS011;4364;52.426;9.424;2022-12-29T00:27:33;3.33;;;2.13;;
8652;SDS011;4364;52.426;9.424;2022-12-29T00:30:19;2.53;;;1.90;;
8652;SDS011;4364;52.426;9.424;2022-12-29T00:33:09;2.00;;;1.67;;
8652;SDS011;4364;52.426;9.424;2022-12-29T00:36:09;2.50;;;1.67;;
8652;SDS011;4364;52.426;9.424;2022-12-29T00:38:44;2.43;;;1.60;;
8652;SDS011;4364;52.426;9.424;2022-12-29T00:41:32;1.63;;;1.53;;
8652;SDS011;4364;52.426;9.424;2022-12-29T00:44:17;1.90;;;1.47;;
8652;SDS011;4364;52.426;9.424;2022-12-29T00:46:43;1.80;;;1.40;;
8652;SDS011;4364;52.426;9.424;2022-12-29T00:49:11;2.07;;;1.53;;
8652;SDS011;4364;52.426;9.424;2022-12-29T00:54:27;1.63;;;1.30;;
8652;SDS011;4364;52.426;9.424;2022-12-29T00:56:55;1.57;;;1.30;;
8652;SDS011;4364;52.426;9.424;2022-12-29T00:59:22;1.40;;;1.30;;
8652;SDS011;4364;52.426;9.424;2022-12-29T01:01:50;1.37;;;1.20;;
8652;SDS011;4364;52.426;9.424;2022-12-29T01:04:19;1.50;;;1.30;;
8652;SDS011;4364;52.426;9.424;2022-12-29T01:06:47;1.80;;;1.13;;
8652;SDS011;4364;52.426;9.424;2022-12-29T01:09:15;2.13;;;1.20;;
8652;SDS011;4364;52.426;9.424;2022-12-29T01:12:01;1.37;;;1.27;;
8652;SDS011;4364;52.426;9.424;2022-12-29T01:14:29;1.27;;;1.17;;
8652;SDS011;4364;52.426;9.424;2022-12-29T01:16:56;1.73;;;1.20;;
8652;SDS011;4364;52.426;9.424;2022-12-29T01:19:23;1.73;;;1.40;;
8652;SDS011;4364;52.426;9.424;2022-12-29T01:21:49;2.17;;;1.20;;
8652;SDS011;4364;52.426;9.424;2022-12-29T01:24:18;1.80;;;1.20;;
8652;SDS011;4364;52.426;9.424;2022-12-29T01:26:46;3.80;;;1.40;;
8652;SDS011;4364;52.426;9.424;2022-12-29T01:29:15;1.47;;;1.33;;
8652;SDS011;4364;52.426;9.424;2022-12-29T01:31:44;1.20;;;1.10;;
8652;SDS011;4364;52.426;9.424;2022-12-29T01:34:11;2.40;;;1.30;;
8652;SDS011;4364;52.426;9.424;2022-12-29T01:36:39;1.47;;;1.23;;
8652;SDS011;4364;52.426;9.424;2022-12-29T01:39:05;1.43;;;1.20;;
8652;SDS011;4364;52.426;9.424;2022-12-29T01:41:32;1.40;;;1.30;;
8652;SDS011;4364;52.426;9.424;2022-12-29T01:44:00;1.40;;;1.30;;
8652;SDS011;4364;52.426;9.424;2022-12-29T01:46:41;4.00;;;1.30;;
8652;SDS011;4364;52.426;9.424;2022-12-29T01:49:15;1.30;;;1.10;;
8652;SDS011;4364;52.426;9.424;2022-12-29T01:51:48;3.20;;;1.20;;
8652;SDS011;4364;52.426;9.424;2022-12-29T01:54:35;2.03;;;1.20;;
8652;SDS011;4364;52.426;9.424;2022-12-29T01:57:07;3.43;;;1.20;;
8652;SDS011;4364;52.426;9.424;2022-12-29T01:59:42;3.13;;;1.13;;
8652;SDS011;4364;52.426;9.424;2022-12-29T02:02:13;1.37;;;0.90;;
8652;SDS011;4364;52.426;9.424;2022-12-29T02:04:40;1.53;;;1.10;;
8652;SDS011;4364;52.426;9.424;2022-12-29T02:07:19;1.20;;;1.10;;
8652;SDS011;4364;52.426;9.424;2022-12-29T02:09:49;1.23;;;1.13;;
8652;SDS011;4364;52.426;9.424;2022-12-29T02:12:18;1.33;;;1.00;;
8652;SDS011;4364;52.426;9.424;2022-12-29T02:14:47;1.20;;;1.00;;
8652;SDS011;4364;52.426;9.424;2022-12-29T02:29:03;1.20;;;1.10;;
8652;SDS011;4364;52.426;9.424;2022-12-29T02:32:18;1.53;;;0.90;;
8652;SDS011;4364;52.426;9.424;2022-12-29T02:40:58;0.90;;;0.83;;
8652;SDS011;4364;52.426;9.424;2022-12-29T02:46:15;1.87;;;1.10;;
8652;SDS011;4364;52.426;9.424;2022-12-29T02:51:56;1.30;;;1.20;;
8652;SDS011;4364;52.426;9.424;2022-12-29T02:54:29;2.23;;;1.30;;
8652;SDS011;4364;52.426;9.424;2022-12-29T02:57:14;1.20;;;1.10;;
8652;SDS011;4364;52.426;9.424;2022-12-29T02:59:51;2.60;;;1.20;;
8652;SDS011;4364;52.426;9.424;2022-12-29T03:05:14;1.40;;;1.20;;
8652;SDS011;4364;52.426;9.424;2022-12-29T03:07:58;1.50;;;1.23;;
8652;SDS011;4364;52.426;9.424;2022-12-29T03:10:55;1.23;;;1.10;;
8652;SDS011;4364;52.426;9.424;2022-12-29T03:13:44;2.40;;;1.10;;
8652;SDS011;4364;52.426;9.424;2022-12-29T03:16:48;2.60;;;1.20;;
8652;SDS011;4364;52.426;9.424;2022-12-29T03:19:32;1.67;;;1.13;;
8652;SDS011;4364;52.426;9.424;2022-12-29T03:22:05;1.50;;;1.20;;
8652;SDS011;4364;52.426;9.424;2022-12-29T03:27:38;1.77;;;1.30;;
8652;SDS011;4364;52.426;9.424;2022-12-29T03:30:08;1.23;;;1.13;;
8652;SDS011;4364;52.426;9.424;2022-12-29T03:32:38;1.90;;;1.50;;
8652;SDS011;4364;52.426;9.424;2022-12-29T03:35:12;2.10;;;1.23;;
8652;SDS011;4364;52.426;9.424;2022-12-29T03:37:43;1.40;;;1.30;;
8652;SDS011;4364;52.426;9.424;2022-12-29T03:40:16;2.13;;;1.57;;
8652;SDS011;4364;52.426;9.424;2022-12-29T03:42:45;1.57;;;1.30;;
8652;SDS011;4364;52.426;9.424;2022-12-29T03:45:13;2.53;;;1.50;;
8652;SDS011;4364;52.426;9.424;2022-12-29T03:47:40;1.80;;;1.30;;
8652;SDS011;4364;52.426;9.424;2022-12-29T03:50:07;1.57;;;1.40;;
8652;SDS011;4364;52.426;9.424;2022-12-29T03:52:38;1.63;;;1.50;;
8652;SDS011;4364;52.426;9.424;2022-12-29T03:55:05;1.47;;;1.30;;
8652;SDS011;4364;52.426;9.424;2022-12-29T03:57:32;2.17;;;1.67;;
8652;SDS011;4364;52.426;9.424;2022-12-29T04:00:04;1.93;;;1.70;;
8652;SDS011;4364;52.426;9.424;2022-12-29T04:02:40;2.07;;;1.60;;
8652;SDS011;4364;52.426;9.424;2022-12-29T04:05:10;3.70;;;1.67;;
8652;SDS011;4364;52.426;9.424;2022-12-29T04:07:37;2.07;;;1.50;;
8652;SDS011;4364;52.426;9.424;2022-12-29T04:10:04;2.40;;;1.67;;
8652;SDS011;4364;52.426;9.424;2022-12-29T04:12:33;2.30;;;1.73;;
8652;SDS011;4364;52.426;9.424;2022-12-29T04:15:00;1.57;;;1.40;;
8652;SDS011;4364;52.426;9.424;2022-12-29T04:17:27;2.17;;;1.30;;
8652;SDS011;4364;52.426;9.424;2022-12-29T04:19:54;2.23;;;1.27;;
8652;SDS011;4364;52.426;9.424;2022-12-29T04:22:42;1.47;;;0.90;;
8652;SDS011;4364;52.426;9.424;2022-12-29T04:25:08;0.77;;;0.70;;
8652;SDS011;4364;52.426;9.424;2022-12-29T04:27:35;1.50;;;0.90;;
8652;SDS011;4364;52.426;9.424;2022-12-29T04:30:20;1.23;;;0.80;;
8652;SDS011;4364;52.426;9.424;2022-12-29T04:33:07;1.00;;;0.80;;
8652;SDS011;4364;52.426;9.424;2022-12-29T04:35:34;0.70;;;0.70;;
8652;SDS011;4364;52.426;9.424;2022-12-29T04:38:02;1.70;;;0.80;;
8652;SDS011;4364;52.426;9.424;2022-12-29T04:40:29;2.00;;;0.80;;
8652;SDS011;4364;52.426;9.424;2022-12-29T04:42:55;1.07;;;0.80;;
8652;SDS011;4364;52.426;9.424;2022-12-29T04:45:23;1.13;;;0.90;;
8652;SDS011;4364;52.426;9.424;2022-12-29T04:47:56;2.13;;;0.80;;
8652;SDS011;4364;52.426;9.424;2022-12-29T04:50:58;1.13;;;0.70;;
8652;SDS011;4364;52.426;9.424;2022-12-29T04:53:27;2.03;;;0.80;;
8652;SDS011;4364;52.426;9.424;2022-12-29T04:55:54;1.87;;;0.70;;
8652;SDS011;4364;52.426;9.424;2022-12-29T04:58:21;1.07;;;0.77;;
8652;SDS011;4364;52.426;9.424;2022-12-29T05:00:50;2.27;;;1.00;;
8652;SDS011;4364;52.426;9.424;2022-12-29T05:03:21;2.57;;;0.80;;
8652;SDS011;4364;52.426;9.424;2022-12-29T05:05:48;2.47;;;1.10;;
8652;SDS011;4364;52.426;9.424;2022-12-29T05:08:16;1.53;;;0.83;;
8652;SDS011;4364;52.426;9.424;2022-12-29T05:10:46;1.67;;;0.90;;
8652;SDS011;4364;52.426;9.424;2022-12-29T05:13:14;0.77;;;0.70;;
8652;SDS011;4364;52.426;9.424;2022-12-29T05:15:45;0.80;;;0.80;;
8652;SDS011;4364;52.426;9.424;2022-12-29T05:18:22;1.20;;;0.87;;
8652;SDS011;4364;52.426;9.424;2022-12-29T05:20:48;1.33;;;0.70;;
8652;SDS011;4364;52.426;9.424;2022-12-29T05:23:16;1.70;;;0.57;;
8652;SDS011;4364;52.426;9.424;2022-12-29T05:25:48;1.80;;;0.73;;
8652;SDS011;4364;52.426;9.424;2022-12-29T05:28:17;0.80;;;0.67;;
8652;SDS011;4364;52.426;9.424;2022-12-29T05:30:58;1.00;;;0.70;;
8652;SDS011;4364;52.426;9.424;2022-12-29T05:33:24;0.97;;;0.70;;
8652;SDS011;4364;52.426;9.424;2022-12-29T05:35:51;1.87;;;0.87;;
8652;SDS011;4364;52.426;9.424;2022-12-29T05:38:18;0.70;;;0.57;;
8652;SDS011;4364;52.426;9.424;2022-12-29T05:40:45;0.80;;;0.60;;
8652;SDS011;4364;52.426;9.424;2022-12-29T05:43:41;1.80;;;0.97;;
8652;SDS011;4364;52.426;9.424;2022-12-29T05:46:26;1.87;;;1.00;;
8652;SDS011;4364;52.426;9.424;2022-12-29T05:49:07;2.87;;;0.90;;
8652;SDS011;4364;52.426;9.424;2022-12-29T05:51:51;1.80;;;0.73;;
8652;SDS011;4364;52.426;9.424;2022-12-29T05:54:17;3.00;;;0.80;;
8652;SDS011;4364;52.426;9.424;2022-12-29T05:56:44;0.63;;;0.63;;
8652;SDS011;4364;52.426;9.424;2022-12-29T05:59:11;1.70;;;0.83;;
8652;SDS011;4364;52.426;9.424;2022-12-29T06:01:38;1.83;;;0.90;;
8652;SDS011;4364;52.426;9.424;2022-12-29T06:04:06;2.13;;;0.90;;
8652;SDS011;4364;52.426;9.424;2022-12-29T06:06:33;1.23;;;0.80;;
8652;SDS011;4364;52.426;9.424;2022-12-29T06:08:59;1.47;;;0.90;;
8652;SDS011;4364;52.426;9.424;2022-12-29T06:11:27;2.77;;;0.73;;
8652;SDS011;4364;52.426;9.424;2022-12-29T06:13:57;2.00;;;0.87;;
8652;SDS011;4364;52.426;9.424;2022-12-29T06:16:23;3.43;;;1.87;;
8652;SDS011;4364;52.426;9.424;2022-12-29T06:18:53;2.60;;;1.90;;
8652;SDS011;4364;52.426;9.424;2022-12-29T06:21:21;2.70;;;1.50;;
8652;SDS011;4364;52.426;9.424;2022-12-29T06:23:47;1.20;;;1.10;;
8652;SDS011;4364;52.426;9.424;2022-12-29T06:26:13;1.57;;;1.30;;
8652;SDS011;4364;52.426;9.424;2022-12-29T06:28:40;3.47;;;2.27;;
8652;SDS011;4364;52.426;9.424;2022-12-29T06:31:08;1.30;;;1.20;;
8652;SDS011;4364;52.426;9.424;2022-12-29T06:33:37;1.87;;;1.17;;
8652;SDS011;4364;52.426;9.424;2022-12-29T06:36:04;1.13;;;1.03;;
8652;SDS011;4364;52.426;9.424;2022-12-29T06:38:31;1.40;;;1.30;;
8652;SDS011;4364;52.426;9.424;2022-12-29T06:40:58;1.27;;;1.00;;
8652;SDS011;4364;52.426;9.424;2022-12-29T06:43:33;2.07;;;1.20;;
8652;SDS011;4364;52.426;9.424;2022-12-29T06:46:18;2.97;;;1.20;;
8652;SDS011;4364;52.426;9.424;2022-12-29T06:48:44;1.30;;;1.20;;
8652;SDS011;4364;52.426;9.424;2022-12-29T06:51:11;1.10;;;0.90;;
8652;SDS011;4364;52.426;9.424;2022-12-29T06:53:37;1.27;;;0.80;;
8652;SDS011;4364;52.426;9.424;2022-12-29T06:56:04;4.13;;;1.10;;
8652;SDS011;4364;52.426;9.424;2022-12-29T06:58:30;2.50;;;1.20;;
8652;SDS011;4364;52.426;9.424;2022-12-29T07:00:57;2.63;;;0.83;;
8652;SDS011;4364;52.426;9.424;2022-12-29T07:03:24;1.37;;;0.70;;
8652;SDS011;4364;52.426;9.424;2022-12-29T07:05:50;1.90;;;0.80;;
8652;SDS011;4364;52.426;9.424;2022-12-29T07:08:17;0.97;;;0.77;;
8652;SDS011;4364;52.426;9.424;2022-12-29T07:10:43;3.63;;;0.90;;
8652;SDS011;4364;52.426;9.424;2022-12-29T07:13:10;3.37;;;0.97;;
8652;SDS011;4364;52.426;9.424;2022-12-29T07:15:36;1.73;;;0.73;;
8652;SDS011;4364;52.426;9.424;2022-12-29T07:18:03;1.37;;;0.77;;
8652;SDS011;4364;52.426;9.424;2022-12-29T07:20:30;1.83;;;0.80;;
8652;SDS011;4364;52.426;9.424;2022-12-29T07:22:57;2.53;;;0.80;;
8652;SDS011;4364;52.426;9.424;2022-12-29T07:25:24;3.40;;;0.80;;
8652;SDS011;4364;52.426;9.424;2022-12-29T07:27:51;2.03;;;1.13;;
8652;SDS011;4364;52.426;9.424;2022-12-29T07:30:17;3.37;;;1.00;;
8652;SDS011;4364;52.426;9.424;2022-12-29T07:32:44;0.87;;;0.60;;
8652;SDS011;4364;52.426;9.424;2022-12-29T07:35:10;0.83;;;0.70;;
8652;SDS011;4364;52.426;9.424;2022-12-29T07:37:37;3.03;;;1.03;;
8652;SDS011;4364;52.426;9.424;2022-12-29T07:40:03;1.97;;;0.70;;
8652;SDS011;4364;52.426;9.424;2022-12-29T07:42:31;2.23;;;1.20;;
8652;SDS011;4364;52.426;9.424;2022-12-29T07:44:58;4.00;;;2.03;;
8652;SDS011;4364;52.426;9.424;2022-12-29T07:47:29;1.60;;;1.20;;
8652;SDS011;4364;52.426;9.424;2022-12-29T07:49:56;2.10;;;1.10;;
8652;SDS011;4364;52.426;9.424;2022-12-29T07:52:22;2.03;;;1.20;;
8652;SDS011;4364;52.426;9.424;2022-12-29T07:54:49;3.43;;;1.17;;
8652;SDS011;4364;52.426;9.424;2022-12-29T07:57:15;1.77;;;1.10;;
8652;SDS011;4364;52.426;9.424;2022-12-29T07:59:42;0.87;;;0.83;;
8652;SDS011;4364;52.426;9.424;2022-12-29T08:02:09;2.13;;;1.17;;
8652;SDS011;4364;52.426;9.424;2022-12-29T08:04:37;1.07;;;0.90;;
8652;SDS011;4364;52.426;9.424;2022-12-29T08:07:04;2.03;;;0.77;;
8652;SDS011;4364;52.426;9.424;2022-12-29T08:09:30;1.33;;;1.20;;
8652;SDS011;4364;52.426;9.424;2022-12-29T08:11:57;1.13;;;1.00;;
8652;SDS011;4364;52.426;9.424;2022-12-29T08:14:23;1.47;;;1.17;;
8652;SDS011;4364;52.426;9.424;2022-12-29T08:16:49;1.83;;;1.00;;
8652;SDS011;4364;52.426;9.424;2022-12-29T08:19:16;2.17;;;1.27;;
8652;SDS011;4364;52.426;9.424;2022-12-29T08:21:42;1.30;;;1.20;;
8652;SDS011;4364;52.426;9.424;2022-12-29T08:24:09;2.60;;;1.17;;
8652;SDS011;4364;52.426;9.424;2022-12-29T08:26:36;2.47;;;1.20;;
8652;SDS011;4364;52.426;9.424;2022-12-29T08:29:02;3.13;;;1.37;;
8652;SDS011;4364;52.426;9.424;2022-12-29T08:31:29;2.43;;;1.20;;
8652;SDS011;4364;52.426;9.424;2022-12-29T08:33:56;3.17;;;1.27;;
8652;SDS011;4364;52.426;9.424;2022-12-29T08:36:22;3.60;;;1.33;;
8652;SDS011;4364;52.426;9.424;2022-12-29T08:38:49;2.23;;;1.20;;
8652;SDS011;4364;52.426;9.424;2022-12-29T08:41:15;3.40;;;1.30;;
8652;SDS011;4364;52.426;9.424;2022-12-29T08:43:45;5.97;;;1.60;;
8652;SDS011;4364;52.426;9.424;2022-12-29T08:46:12;3.77;;;1.33;;
8652;SDS011;4364;52.426;9.424;2022-12-29T08:48:39;2.60;;;1.10;;
8652;SDS011;4364;52.426;9.424;2022-12-29T08:51:06;4.33;;;1.50;;
8652;SDS011;4364;52.426;9.424;2022-12-29T08:53:33;3.43;;;1.47;;
8652;SDS011;4364;52.426;9.424;2022-12-29T08:56:01;3.60;;;1.17;;
8652;SDS011;4364;52.426;9.424;2022-12-29T08:58:40;5.10;;;1.30;;
8652;SDS011;4364;52.426;9.424;2022-12-29T09:01:06;3.83;;;1.67;;
8652;SDS011;4364;52.426;9.424;2022-12-29T09:03:33;6.80;;;1.40;;
8652;SDS011;4364;52.426;9.424;2022-12-29T09:06:19;5.27;;;1.33;;
8652;SDS011;4364;52.426;9.424;2022-12-29T09:08:47;5.23;;;1.60;;
8652;SDS011;4364;52.426;9.424;2022-12-29T09:11:18;3.60;;;1.50;;
8652;SDS011;4364;52.426;9.424;2022-12-29T09:13:47;4.20;;;1.40;;
8652;SDS011;4364;52.426;9.424;2022-12-29T09:16:14;5.67;;;1.70;;
8652;SDS011;4364;52.426;9.424;2022-12-29T09:18:42;5.97;;;1.70;;
8652;SDS011;4364;52.426;9.424;2022-12-29T09:21:10;3.50;;;1.30;;
8652;SDS011;4364;52.426;9.424;2022-12-29T09:23:38;4.40;;;1.20;;
8652;SDS011;4364;52.426;9.424;2022-12-29T09:26:06;3.23;;;1.50;;
8652;SDS011;4364;52.426;9.424;2022-12-29T09:28:34;3.83;;;1.30;;
8652;SDS011;4364;52.426;9.424;2022-12-29T09:31:00;4.53;;;1.57;;
8652;SDS011;4364;52.426;9.424;2022-12-29T09:33:27;3.80;;;1.73;;
8652;SDS011;4364;52.426;9.424;2022-12-29T09:35:55;3.07;;;1.53;;
8652;SDS011;4364;52.426;9.424;2022-12-29T09:38:23;4.20;;;1.43;;
8652;SDS011;4364;52.426;9.424;2022-12-29T09:40:52;5.30;;;1.83;;
8652;SDS011;4364;52.426;9.424;2022-12-29T09:46:26;4.60;;;1.50;;
8652;SDS011;4364;52.426;9.424;2022-12-29T09:51:50;6.53;;;2.00;;
8652;SDS011;4364;52.426;9.424;2022-12-29T09:54:26;4.13;;;1.40;;
8652;SDS011;4364;52.426;9.424;2022-12-29T09:56:57;4.23;;;1.60;;
8652;SDS011;4364;52.426;9.424;2022-12-29T09:59:41;5.37;;;1.80;;
8652;SDS011;4364;52.426;9.424;2022-12-29T10:05:31;3.43;;;1.50;;
8652;SDS011;4364;52.426;9.424;2022-12-29T10:13:34;3.57;;;1.43;;
8652;SDS011;4364;52.426;9.424;2022-12-29T10:16:26;5.17;;;1.70;;
8652;SDS011;4364;52.426;9.424;2022-12-29T10:22:00;4.07;;;1.40;;
8652;SDS011;4364;52.426;9.424;2022-12-29T10:24:37;5.07;;;1.47;;
8652;SDS011;4364;52.426;9.424;2022-12-29T10:27:05;2.93;;;1.53;;
8652;SDS011;4364;52.426;9.424;2022-12-29T10:29:40;3.03;;;1.73;;
8652;SDS011;4364;52.426;9.424;2022-12-29T10:34:58;5.90;;;2.03;;
8652;SDS011;4364;52.426;9.424;2022-12-29T10:37:43;5.77;;;2.30;;
8652;SDS011;4364;52.426;9.424;2022-12-29T10:40:29;6.93;;;2.30;;
8652;SDS011;4364;52.426;9.424;2022-12-29T10:43:07;4.27;;;2.10;;
8652;SDS011;4364;52.426;9.424;2022-12-29T10:45:46;5.23;;;2.10;;
8652;SDS011;4364;52.426;9.424;2022-12-29T10:48:21;3.67;;;2.03;;
8652;SDS011;4364;52.426;9.424;2022-12-29T10:50:57;4.47;;;1.87;;
8652;SDS011;4364;52.426;9.424;2022-12-29T10:53:30;3.47;;;1.77;;
8652;SDS011;4364;52.426;9.424;2022-12-29T10:56:05;4.87;;;1.63;;
8652;SDS011;4364;52.426;9.424;2022-12-29T10:58:41;3.23;;;1.60;;
8652;SDS011;4364;52.426;9.424;2022-12-29T11:01:15;4.73;;;1.50;;
8652;SDS011;4364;52.426;9.424;2022-12-29T11:06:46;3.50;;;1.70;;
8652;SDS011;4364;52.426;9.424;2022-12-29T11:09:16;3.90;;;1.70;;
8652;SDS011;4364;52.426;9.424;2022-12-29T11:12:20;6.87;;;1.87;;
8652;SDS011;4364;52.426;9.424;2022-12-29T11:17:47;4.90;;;1.80;;
8652;SDS011;4364;52.426;9.424;2022-12-29T11:20:32;4.03;;;1.70;;
8652;SDS011;4364;52.426;9.424;2022-12-29T11:23:01;5.63;;;1.80;;
8652;SDS011;4364;52.426;9.424;2022-12-29T11:25:29;4.67;;;2.13;;
8652;SDS011;4364;52.426;9.424;2022-12-29T11:27:57;5.87;;;2.30;;
8652;SDS011;4364;52.426;9.424;2022-12-29T11:30:30;4.17;;;1.80;;
8652;SDS011;4364;52.426;9.424;2022-12-29T11:32:58;4.53;;;2.10;;
8652;SDS011;4364;52.426;9.424;2022-12-29T11:38:24;5.67;;;2.17;;
8652;SDS011;4364;52.426;9.424;2022-12-29T11:40:57;3.93;;;1.87;;
8652;SDS011;4364;52.426;9.424;2022-12-29T11:43:26;6.40;;;2.00;;
8652;SDS011;4364;52.426;9.424;2022-12-29T11:45:56;10.60;;;3.97;;
8652;SDS011;4364;52.426;9.424;2022-12-29T11:48:22;5.23;;;2.40;;
8652;SDS011;4364;52.426;9.424;2022-12-29T11:50:54;9.33;;;2.10;;
8652;SDS011;4364;52.426;9.424;2022-12-29T11:53:27;4.63;;;2.00;;
8652;SDS011;4364;52.426;9.424;2022-12-29T11:56:03;4.20;;;1.87;;
8652;SDS011;4364;52.426;9.424;2022-12-29T11:58:35;7.70;;;1.80;;
8652;SDS011;4364;52.426;9.424;2022-12-29T12:03:53;4.53;;;2.03;;
8652;SDS011;4364;52.426;9.424;2022-12-29T12:06:27;6.43;;;2.37;;
8652;SDS011;4364;52.426;9.424;2022-12-29T12:09:00;5.73;;;2.30;;
8652;SDS011;4364;52.426;9.424;2022-12-29T12:11:32;7.27;;;2.27;;
8652;SDS011;4364;52.426;9.424;2022-12-29T12:14:05;7.13;;;3.03;;
8652;SDS011;4364;52.426;9.424;2022-12-29T12:16:59;6.23;;;2.67;;
8652;SDS011;4364;52.426;9.424;2022-12-29T12:22:13;5.97;;;2.57;;
8652;SDS011;4364;52.426;9.424;2022-12-29T12:25:04;8.60;;;3.00;;
8652;SDS011;4364;52.426;9.424;2022-12-29T12:27:41;5.23;;;2.20;;
8652;SDS011;4364;52.426;9.424;2022-12-29T12:30:35;5.40;;;1.73;;
8652;SDS011;4364;52.426;9.424;2022-12-29T12:33:42;6.13;;;1.80;;
8652;SDS011;4364;52.426;9.424;2022-12-29T12:38:50;7.03;;;1.90;;
8652;SDS011;4364;52.426;9.424;2022-12-29T12:46:51;7.50;;;2.47;;
8652;SDS011;4364;52.426;9.424;2022-12-29T12:49:36;5.20;;;1.57;;
8652;SDS011;4364;52.426;9.424;2022-12-29T13:06:33;6.57;;;2.13;;
8652;SDS011;4364;52.426;9.424;2022-12-29T13:12:16;4.83;;;1.90;;
8652;SDS011;4364;52.426;9.424;2022-12-29T13:25:56;2.43;;;1.50;;
8652;SDS011;4364;52.426;9.424;2022-12-29T13:31:20;4.17;;;1.77;;
8652;SDS011;4364;52.426;9.424;2022-12-29T13:36:29;3.93;;;1.80;;
8652;SDS011;4364;52.426;9.424;2022-12-29T13:39:14;6.20;;;1.70;;
8652;SDS011;4364;52.426;9.424;2022-12-29T13:41:51;4.80;;;1.97;;
8652;SDS011;4364;52.426;9.424;2022-12-29T13:47:06;4.27;;;1.63;;
8652;SDS011;4364;52.426;9.424;2022-12-29T13:49:46;6.07;;;1.87;;
8652;SDS011;4364;52.426;9.424;2022-12-29T13:52:23;5.13;;;1.90;;
8652;SDS011;4364;52.426;9.424;2022-12-29T13:55:04;4.20;;;1.70;;
8652;SDS011;4364;52.426;9.424;2022-12-29T13:57:55;4.53;;;2.10;;
8652;SDS011;4364;52.426;9.424;2022-12-29T14:00:33;3.87;;;1.93;;
8652;SDS011;4364;52.426;9.424;2022-12-29T14:06:18;5.37;;;1.90;;
8652;SDS011;4364;52.426;9.424;2022-12-29T14:08:52;4.83;;;1.87;;
8652;SDS011;4364;52.426;9.424;2022-12-29T14:11:21;5.80;;;2.00;;
8652;SDS011;4364;52.426;9.424;2022-12-29T14:13:55;4.90;;;1.97;;
8652;SDS011;4364;52.426;9.424;2022-12-29T14:18:55;6.07;;;2.20;;
8652;SDS011;4364;52.426;9.424;2022-12-29T14:21:29;4.63;;;1.93;;
8652;SDS011;4364;52.426;9.424;2022-12-29T14:24:43;4.70;;;2.00;;
8652;SDS011;4364;52.426;9.424;2022-12-29T14:26:52;6.73;;;2.00;;
8652;SDS011;4364;52.426;9.424;2022-12-29T14:31:52;3.83;;;1.77;;
8652;SDS011;4364;52.426;9.424;2022-12-29T14:37:01;5.33;;;1.80;;
8652;SDS011;4364;52.426;9.424;2022-12-29T14:47:39;9.70;;;1.97;;
8652;SDS011;4364;52.426;9.424;2022-12-29T14:52:47;6.83;;;2.03;;
8652;SDS011;4364;52.426;9.424;2022-12-29T14:57:44;4.60;;;1.67;;
8652;SDS011;4364;52.426;9.424;2022-12-29T15:00:16;7.00;;;2.33;;
8652;SDS011;4364;52.426;9.424;2022-12-29T15:05:50;6.40;;;2.17;;
8652;SDS011;4364;52.426;9.424;2022-12-29T15:08:23;8.07;;;3.30;;
8652;SDS011;4364;52.426;9.424;2022-12-29T15:10:53;9.13;;;3.10;;
8652;SDS011;4364;52.426;9.424;2022-12-29T15:13:24;4.67;;;1.90;;
8652;SDS011;4364;52.426;9.424;2022-12-29T15:15:59;4.77;;;1.70;;
8652;SDS011;4364;52.426;9.424;2022-12-29T15:18:26;7.00;;;2.00;;
8652;SDS011;4364;52.426;9.424;2022-12-29T15:21:03;7.60;;;2.10;;
8652;SDS011;4364;52.426;9.424;2022-12-29T15:23:31;6.60;;;1.73;;
8652;SDS011;4364;52.426;9.424;2022-12-29T15:28:38;7.40;;;1.70;;
8652;SDS011;4364;52.426;9.424;2022-12-29T15:31:10;4.23;;;1.97;;
8652;SDS011;4364;52.426;9.424;2022-12-29T15:33:39;4.67;;;1.80;;
8652;SDS011;4364;52.426;9.424;2022-12-29T15:36:17;6.43;;;2.17;;
8652;SDS011;4364;52.426;9.424;2022-12-29T15:38:47;7.40;;;2.40;;
8652;SDS011;4364;52.426;9.424;2022-12-29T15:46:29;6.17;;;1.70;;
8652;SDS011;4364;52.426;9.424;2022-12-29T15:48:57;8.17;;;2.13;;
8652;SDS011;4364;52.426;9.424;2022-12-29T15:51:28;6.00;;;1.70;;
8652;SDS011;4364;52.426;9.424;2022-12-29T15:53:57;5.50;;;1.87;;
8652;SDS011;4364;52.426;9.424;2022-12-29T15:56:24;6.87;;;2.60;;
8652;SDS011;4364;52.426;9.424;2022-12-29T15:58:55;6.77;;;2.00;;
8652;SDS011;4364;52.426;9.424;2022-12-29T16:04:08;10.40;;;4.10;;
8652;SDS011;4364;52.426;9.424;2022-12-29T16:06:36;5.73;;;2.47;;
8652;SDS011;4364;52.426;9.424;2022-12-29T16:09:05;8.73;;;2.93;;
8652;SDS011;4364;52.426;9.424;2022-12-29T16:11:53;9.17;;;2.57;;
8652;SDS011;4364;52.426;9.424;2022-12-29T16:14:33;7.10;;;2.30;;
8652;SDS011;4364;52.426;9.424;2022-12-29T16:17:06;7.77;;;2.60;;
8652;SDS011;4364;52.426;9.424;2022-12-29T16:19:39;6.37;;;2.33;;
8652;SDS011;4364;52.426;9.424;2022-12-29T16:22:51;6.83;;;3.13;;
8652;SDS011;4364;52.426;9.424;2022-12-29T16:25:13;7.50;;;2.87;;
8652;SDS011;4364;52.426;9.424;2022-12-29T16:27:45;6.63;;;2.83;;
8652;SDS011;4364;52.426;9.424;2022-12-29T16:30:17;7.23;;;2.37;;
8652;SDS011;4364;52.426;9.424;2022-12-29T16:32:56;5.27;;;2.17;;
8652;SDS011;4364;52.426;9.424;2022-12-29T16:40:55;6.40;;;2.53;;
8652;SDS011;4364;52.426;9.424;2022-12-29T16:43:29;7.30;;;2.77;;
8652;SDS011;4364;52.426;9.424;2022-12-29T16:48:27;10.07;;;3.30;;
8652;SDS011;4364;52.426;9.424;2022-12-29T16:51:04;8.87;;;3.60;;
8652;SDS011;4364;52.426;9.424;2022-12-29T16:53:38;8.23;;;3.87;;
8652;SDS011;4364;52.426;9.424;2022-12-29T16:56:20;8.93;;;5.00;;
8652;SDS011;4364;52.426;9.424;2022-12-29T16:59:09;9.53;;;3.40;;
8652;SDS011;4364;52.426;9.424;2022-12-29T17:01:54;11.67;;;3.83;;
8652;SDS011;4364;52.426;9.424;2022-12-29T17:04:23;7.80;;;3.17;;
8652;SDS011;4364;52.426;9.424;2022-12-29T17:06:49;10.20;;;3.43;;
8652;SDS011;4364;52.426;9.424;2022-12-29T17:09:19;7.20;;;3.43;;
8652;SDS011;4364;52.426;9.424;2022-12-29T17:11:48;6.57;;;3.03;;
8652;SDS011;4364;52.426;9.424;2022-12-29T17:14:34;4.77;;;2.33;;
8652;SDS011;4364;52.426;9.424;2022-12-29T17:17:13;5.43;;;2.37;;
8652;SDS011;4364;52.426;9.424;2022-12-29T17:19:53;7.53;;;2.50;;
8652;SDS011;4364;52.426;9.424;2022-12-29T17:22:25;7.50;;;2.70;;
8652;SDS011;4364;52.426;9.424;2022-12-29T17:24:54;7.60;;;2.80;;
8652;SDS011;4364;52.426;9.424;2022-12-29T17:27:24;8.33;;;3.00;;
8652;SDS011;4364;52.426;9.424;2022-12-29T17:29:56;7.60;;;2.50;;
8652;SDS011;4364;52.426;9.424;2022-12-29T17:32:25;6.20;;;2.50;;
8652;SDS011;4364;52.426;9.424;2022-12-29T17:34:52;5.47;;;2.60;;
8652;SDS011;4364;52.426;9.424;2022-12-29T17:37:24;7.57;;;3.40;;
8652;SDS011;4364;52.426;9.424;2022-12-29T17:39:54;9.83;;;2.77;;
8652;SDS011;4364;52.426;9.424;2022-12-29T17:42:20;7.77;;;4.33;;
8652;SDS011;4364;52.426;9.424;2022-12-29T17:44:47;8.27;;;4.10;;
8652;SDS011;4364;52.426;9.424;2022-12-29T17:47:13;8.50;;;4.50;;
8652;SDS011;4364;52.426;9.424;2022-12-29T17:49:41;6.87;;;3.40;;
8652;SDS011;4364;52.426;9.424;2022-12-29T17:52:12;6.57;;;2.67;;
8652;SDS011;4364;52.426;9.424;2022-12-29T17:54:49;7.47;;;2.93;;
8652;SDS011;4364;52.426;9.424;2022-12-29T17:57:19;11.70;;;3.40;;
8652;SDS011;4364;52.426;9.424;2022-12-29T17:59:46;9.30;;;3.60;;
8652;SDS011;4364;52.426;9.424;2022-12-29T18:02:23;11.43;;;3.33;;
8652;SDS011;4364;52.426;9.424;2022-12-29T18:04:50;10.17;;;3.83;;
8652;SDS011;4364;52.426;9.424;2022-12-29T18:07:17;9.07;;;4.27;;
8652;SDS011;4364;52.426;9.424;2022-12-29T18:09:44;7.83;;;3.90;;
8652;SDS011;4364;52.426;9.424;2022-12-29T18:12:31;8.37;;;3.40;;
8652;SDS011;4364;52.426;9.424;2022-12-29T18:15:02;7.57;;;2.90;;
8652;SDS011;4364;52.426;9.424;2022-12-29T18:17:29;6.97;;;2.80;;
8652;SDS011;4364;52.426;9.424;2022-12-29T18:19:56;5.53;;;2.30;;
8652;SDS011;4364;52.426;9.424;2022-12-29T18:22:23;5.90;;;2.33;;
8652;SDS011;4364;52.426;9.424;2022-12-29T18:24:50;3.70;;;2.10;;